Ride Results

FAW EEC Sat (11-04-2009)
Ride distance: 84.0 km

Outcomes - FAW EEC Sat (11-04-2009)
Division No. of Entries Retired / DNE Completed Withdrawn Ineligible V/O Percentage Completed
HW 11 - 9 1 - 1 81.82%
MW 41 - 24 1 - 16 58.54%
LW 18 - 14 1 - 3 77.78%
JN 10 - 9 - - 1 90.00%
Totals 80 - 56 3 - 21 70.00%
Results - FAW EEC Sat (11-04-2009)
No. Rider Horse Place Time Leg Speeds Total
Km/Hr
H/R bpm
Heavyweight
57 Brian Maher Sundust Mynstral 1 6:23:00 13.7, 12.4 13.16 36, 45, 46 (Avg:45)
45 Vern Berry Larawah Myhara 2 (BC) 6:24:00 13.6, 12.5 13.13 31, 46, 54 (Avg:50)
53 Peter Birch Hillbrae May 3 6:29:00 14.0, 11.8 12.96 28, 46, 44 (Avg:45)
76 Michael Shaw Bellabin 4 6:38:00 12.3, 13.0 12.66 35, 47, 55 (Avg:51)
1 David Grove Aloha Delphic 5 6:44:00 12.6, 12.2 12.48 36, 50, 56 (Avg:53)
40 Niels Lochtenberg Matta Mia Safir 6 6:59:00 12.3, 11.6 12.03 44, 42, 46 (Avg:44)
58 Mick Hill Roxborough Ribuck 7 7:34:00 11.4, 10.6 11.10 39, 42, 42 (Avg:42)
17 Peter Toft Electra BBP Murdoch 8 7:39:00 11.3, 10.6 10.98 32, 37, 41 (Avg:39)
7 Arch Felton Bint Shah Dara 9 8:57:00 8.0, 11.6 9.39 31, 42, 49 (Avg:45)
27 Jacqui Emery Bella donna Rubi Widthdrawn L2 0:00:00 - - 37, 54, 47 (Avg:50)
3 Scott Barker Saronet Phantom Lame L1 0:00:00 15.3 - 33, 54 (Avg:54)
Middleweight
54 Simone Krahnen Kalkadoon Zorro 1 4:35:00 17.3, 19.6 18.33 27, 43, 52 (Avg:47)
52 Gerard Bou Keisha 2 (BC) 5:00:00 17.2, 16.2 16.80 32, 49, 43 (Avg:46)
44 Shelley Chapman Bellarine Passion 3 5:55:00 13.6, 14.9 14.20 26, 39, 41 (Avg:40)
38 Sally Genninges Chazar Bandana 4 6:00:00 14.6, 13.2 14.00 36, 43, 42 (Avg:42)
66 Renae Kuhn Bourhani Albaraq 5 6:07:00 14.8, 12.5 13.73 41, 45, 46 (Avg:45)
15 Penny Toft Zalman 6 6:12:00 14.4, 12.5 13.55 37, 43, 46 (Avg:44)
29 Emma Masters Die Kinder Lunar Eclipse 7 6:19:00 13.7, 12.8 13.30 39, 51, 54 (Avg:52)
69 Rod Strahan Shardell Azrark 8 6:20:00 13.3, 13.1 13.26 32, 39, 43 (Avg:41)
19 Sheik saeed Bin Maktoum La Crysada 9 6:23:00 13.7, 12.4 13.16 34, 46, 44 (Avg:45)
4 Jeff Trevarthen Sarandeep 10 6:33:00 12.6, 13.0 12.82 29, 40, 54 (Avg:47)
75 Colleen Shaw Mt Eerwah Shazaam 11 6:38:00 12.3, 13.0 12.66 33, 45, 46 (Avg:45)
70 Prutirat Serireongrith Shardell Prince Valiant 12 6:42:00 13.3, 11.6 12.54 35, 44, 46 (Avg:45)
30 Francis Haack Remington Way 13 6:47:00 13.3, 11.3 12.38 48, 51, 44 (Avg:47)
20 Gayle Holmes Captain Creek Tall Boy 14 6:49:00 12.0, 12.6 12.32 38, 46, 51 (Avg:48)
21 Akhmed Pshunov Seven 14 6:49:00 12.1, 12.5 12.32 30, 40, 46 (Avg:43)
36 Lisa Sanchez Lanamere Forte 14 6:49:00 14.4, 10.4 12.32 37, 54, 51 (Avg:52)
41 Derryn Nix Shaydeetree Baci 17 6:57:00 11.5, 12.7 12.09 40, 46, 50 (Avg:48)
59 Evelyn Cornell Safira Myth 18 7:34:00 11.4, 10.7 11.10 36, 40, 43 (Avg:41)
11 Robyn Pembroke Mt Eerwah Silver Arafina 19 7:39:00 11.5, 10.3 10.98 34, 38, 48 (Avg:43)
62 Helen Toft Sunhaven Brooklyn 19 7:39:00 11.3, 10.6 10.98 27, 37, 41 (Avg:39)
81 Errol Watt Maioro Fire 19 7:39:00 11.3, 10.6 10.98 45, 44, 54 (Avg:49)
39 Adrian Brickley Poppie te 22 7:55:00 10.1, 11.2 10.61 34, 40, 43 (Avg:41)
78 Ronan Cahill Marja My Girl 23 8:12:00 11.0, 9.3 10.24 39, 43, 45 (Avg:44)
46 Harjinder Chand Jael 23 8:12:00 10.0, 10.4 10.24 32, 44, 51 (Avg:47)
49 Cathie Bruce Steel Poppy Dali Lame L2 0:00:00 9.8, 9.5 - 37, 45, 46 (Avg:45)
28 Stephen Gray Shartier el shareef Lame L2 0:00:00 13.7, 12.8 - 45, 46, 59 (Avg:52)
50 Ute Jordan Samson Lame L2 0:00:00 12.6, 11.2 - 35, 44, 50 (Avg:47)
73 Rachael Keys Elfar Viper Fire Lame L2 0:00:00 10.7, 11.1 - 37, 42, 47 (Avg:44)
23 Ken Moir Far Q Desmond Heart Rate L2 0:00:00 13.7, 12.5 - 37, 51, 66 (Avg:58)
10 Chelsea Moore Mt Eerwah Silver Selene Lame L2 0:00:00 11.5, 10.3 - 35, 45, 47 (Avg:46)
25 Bridget Nottle Cynthia Lame L2 0:00:00 10.1, 11.2 - 40, 41, 43 (Avg:42)
5 Sonya Ryan Lindall Farvio Heart Rate L2 0:00:00 13.8, 11.7 - 33, 41, 69 (Avg:55)
47 Danielle Cullen Aquarius Park Chantilly Lace Lame L1 0:00:00 10.0 - 32, 43 (Avg:43)
35 Caroline Fitzgerald Lanamere Femmara Heart Rate L1 0:00:00 14.4 - 36, 66 (Avg:66)
9 Sue Gurtner Roseglen Cedarton Sym Lame L1 0:00:00 10.7 - 38, 53 (Avg:53)
24 Sandy Hose Meltharina Mercury Heart Rate L1 0:00:00 13.5 - 40, 66 (Avg:66)
32 Jess Langridge Woomera Sovereign Heart Rate L1 0:00:00 10.7 - 38, 62 (Avg:62)
8 Lesley Nancarrow Razorback Love Song Lame L1 0:00:00 2.2 - 38, 45 (Avg:45)
42 Warwick Percival Adeptly Heart Rate L1 0:00:00 12.2 - 35, 62 (Avg:62)
43 Kate Percival Beam Dancer Heart Rate L1 0:00:00 12.2 - 35, 63 (Avg:63)
61 Justin Otto Bashan Memphis Widthdrawn P/R 0:00:00 - - 35
Lightweight
56 Jeanna Maher Red Gum Trinket 1 5:00:30 17.6, 15.7 16.77 37, 44, 55 (Avg:49)
60 Amanda Powell Dakila Renoasette 2 5:54:00 15.3, 13.0 14.24 42, 47, 56 (Avg:51)
77 Clare Fleming Birramalee Queen of Hearts 3 (BC) 6:10:00 14.3, 12.8 13.62 42, 45, 46 (Avg:45)
26 Anne Jones Tongarra Red Cloud 4 6:12:00 14.5, 12.5 13.55 33, 41, 52 (Avg:46)
14 Jane Fisher Shanzee 5 6:23:00 13.7, 12.5 13.16 35, 42, 48 (Avg:45)
65 Marcia Burger Johroy Custom Made 6 6:33:00 13.3, 12.2 12.82 38, 43, 48 (Avg:45)
71 Wipawan Panitayalarp Mt Eerwah Silver Mariner 7 6:42:00 13.3, 11.6 12.54 32, 36, 42 (Avg:39)
22 Sasha Laws-King Zemzem Zawinui 8 6:43:00 12.1, 12.9 12.51 39, 53, 59 (Avg:56)
51 Sue Jones El Castano Mirada 9 7:02:00 12.6, 11.2 11.94 36, 45, 49 (Avg:47)
13 Saasha Grogan Sahala Azure Rose 10 7:28:00 10.8, 11.7 11.25 30, 41, 38 (Avg:39)
12 Angela Hawks Sapphire 10 7:28:00 10.8, 11.7 11.25 32, 40, 42 (Avg:41)
33 Leigh Rich Leondon Maritz 12 7:30:00 11.4, 10.8 11.20 24, 41, 41 (Avg:41)
2 Cathy Herve Hilbrae Maxine 13 7:39:00 11.4, 10.5 10.98 33, 40, 41 (Avg:40)
64 Clio Rauch Belgari Bentley 14 7:55:00 10.4, 10.8 10.61 31, 44, 49 (Avg:46)
80 Annette Chamberlain Annordean Sir Zac Lame L2 0:00:00 13.8, 14.6 - 32, 42, 47 (Avg:44)
18 Susan Kelman Jayhal Moonlight Heart Rate L2 0:00:00 14.6, 10.6 - 36, 44, 70 (Avg:57)
34 Robin Young Melawondi Lame L2 0:00:00 10.4, 8.4 - 36, 40, 45 (Avg:42)
72 Supanee Chaiwiroj Splendacrest Ulysses Widthdrawn L1 0:00:00 - - 31, 35 (Avg:35)
Junior
6 Hannah Houlden Googabilla Lodge Starlight 1 (BC) 4:36:00 17.6, 18.9 18.26 38, 40, 47 (Avg:43)
37 Lainie Zischke Glenewan Sprite 2 5:54:00 14.9, 13.4 14.24 34, 46, 45 (Avg:45)
16 Alexandra Toft Malricia Bern 3 6:12:00 14.4, 12.5 13.55 40, 46, 51 (Avg:48)
31 Alana Sanchez Maf-Ue Sahmet 4 6:49:00 14.4, 10.4 12.32 32, 48, 45 (Avg:46)
63 Georgia Toft Bremervale Bay Malibu 5 7:39:00 11.3, 10.6 10.98 30, 44, 43 (Avg:43)
79 Lindsay Dennis Zenith Park Chico Niveladora 6 7:41:00 10.8, 11.0 10.93 37, 48, 46 (Avg:47)
74 Dylan Keys Elfar Sword O'Fire 6 7:41:00 10.7, 11.1 10.93 38, 36, 44 (Avg:40)
67 Steph Tulk Bacchante Silver Lace 8 7:55:00 10.4, 10.8 10.61 35, 48, 52 (Avg:50)
48 Jess Dakin Larabi Sid Simba'ar 9 8:12:00 10.0, 10.4 10.24 42, 47, 51 (Avg:49)
55 Erin Krahnen Rodborough Bey Abdul Metabolics moderate L1 0:00:00 17.3 - 24, 44 (Avg:44)